Time,TemperatureF,DewpointF,PressureIn,WindDirection,WindDirectionDegrees,WindSpeedMPH,WindSpeedGustMPH,Humidity,HourlyPrecipIn,Conditions,Clouds,dailyrainin,SoftwareType,DateUTC
2013-04-02 00:07:00,24.4,17.7,30.11,SE,135,4.3,-999.0,75,-99.99,,,0.00,Acu-Link.com,2013-04-02 06:07:00,
2013-04-02 00:23:00,23.2,16.8,30.10,SSW,202,4.3,-999.0,76,-99.99,,,0.00,Acu-Link.com,2013-04-02 06:23:00,
2013-04-02 00:38:00,22.3,16.8,30.10,SW,225,4.3,-999.0,79,-99.99,,,0.00,Acu-Link.com,2013-04-02 06:38:00,
2013-04-02 00:53:00,22.5,17.0,30.10,SW,225,3.1,-999.0,79,-99.99,,,0.00,Acu-Link.com,2013-04-02 06:53:00,
2013-04-02 01:09:00,23.2,17.4,30.11,SW,225,4.7,-999.0,78,-99.99,,,0.00,Acu-Link.com,2013-04-02 07:09:00,
2013-04-02 01:24:00,23.2,17.4,30.11,SSE,157,5.1,-999.0,78,-99.99,,,0.00,Acu-Link.com,2013-04-02 07:24:00,
2013-04-02 01:39:00,22.8,17.0,30.10,SW,225,5.8,-999.0,78,-99.99,,,0.00,Acu-Link.com,2013-04-02 07:39:00,
2013-04-02 01:54:00,22.5,16.7,30.10,South,180,4.3,-999.0,78,-99.99,,,0.00,Acu-Link.com,2013-04-02 07:54:00,
2013-04-02 02:09:00,23.7,17.3,30.10,SSW,202,6.7,-999.0,76,-99.99,,,0.00,Acu-Link.com,2013-04-02 08:09:00,
2013-04-02 02:25:00,24.3,17.5,30.10,SSW,202,5.8,-999.0,75,-99.99,,,0.00,Acu-Link.com,2013-04-02 08:25:00,
2013-04-02 02:40:00,23.9,17.2,30.09,SW,225,5.8,-999.0,75,-99.99,,,0.00,Acu-Link.com,2013-04-02 08:40:00,
2013-04-02 02:55:00,23.7,17.0,30.09,SW,225,6.3,-999.0,75,-99.99,,,0.00,Acu-Link.com,2013-04-02 08:55:00,
2013-04-02 03:10:00,23.7,17.3,30.09,SW,225,6.7,-999.0,76,-99.99,,,0.00,Acu-Link.com,2013-04-02 09:10:00,
2013-04-02 03:25:00,23.9,17.2,30.08,SW,225,6.7,-999.0,75,-99.99,,,0.00,Acu-Link.com,2013-04-02 09:25:00,
2013-04-02 03:40:00,23.9,16.8,30.09,SW,225,5.8,-999.0,74,-99.99,,,0.00,Acu-Link.com,2013-04-02 09:40:00,
2013-04-02 03:55:00,25.5,17.4,30.08,SW,225,5.8,-999.0,71,-99.99,,,0.00,Acu-Link.com,2013-04-02 09:55:00,
2013-04-02 04:26:00,25.5,17.4,30.08,SW,225,3.8,-999.0,71,-99.99,,,0.00,Acu-Link.com,2013-04-02 10:26:00,
2013-04-02 04:41:00,24.1,17.0,30.08,SW,225,2.7,-999.0,74,-99.99,,,0.00,Acu-Link.com,2013-04-02 10:41:00,
2013-04-02 04:57:00,23.0,16.6,30.09,SW,225,0.0,-999.0,76,-99.99,,,0.00,Acu-Link.com,2013-04-02 10:57:00,
2013-04-02 05:12:00,22.3,16.5,30.09,NE,45,3.8,-999.0,78,-99.99,,,0.00,Acu-Link.com,2013-04-02 11:12:00,
2013-04-02 05:27:00,20.7,15.5,30.10,NE,45,2.7,-999.0,80,-99.99,,,0.00,Acu-Link.com,2013-04-02 11:27:00,
2013-04-02 05:42:00,19.8,15.4,30.10,NE,45,3.8,-999.0,83,-99.99,,,0.00,Acu-Link.com,2013-04-02 11:42:00,
2013-04-02 05:57:00,19.4,15.4,30.11,NE,45,2.2,-999.0,84,-99.99,,,0.00,Acu-Link.com,2013-04-02 11:57:00,
2013-04-02 06:13:00,18.9,15.1,30.10,NE,45,1.1,-999.0,85,-99.99,,,0.00,Acu-Link.com,2013-04-02 12:13:00,
2013-04-02 06:28:00,18.7,14.9,30.10,NE,45,2.2,-999.0,85,-99.99,,,0.00,Acu-Link.com,2013-04-02 12:28:00,
2013-04-02 06:43:00,18.3,14.8,30.11,NE,45,2.2,-999.0,86,-99.99,,,0.00,Acu-Link.com,2013-04-02 12:43:00,
2013-04-02 06:59:00,20.3,16.3,30.10,NE,45,2.2,-999.0,84,-99.99,,,0.00,Acu-Link.com,2013-04-02 12:59:00,
2013-04-02 07:14:00,20.5,15.9,30.11,NE,45,3.1,-999.0,82,-99.99,,,0.00,Acu-Link.com,2013-04-02 13:14:00,
2013-04-02 07:29:00,20.8,16.5,30.12,ESE,112,4.7,-999.0,83,-99.99,,,0.00,Acu-Link.com,2013-04-02 13:29:00,
2013-04-02 07:45:00,22.3,18.2,30.13,ESE,112,8.3,-999.0,84,-99.99,,,0.00,Acu-Link.com,2013-04-02 13:45:00,
2013-04-02 08:00:00,23.2,18.2,30.13,East,90,7.4,-999.0,81,-99.99,,,0.00,Acu-Link.com,2013-04-02 14:00:00,
2013-04-02 08:15:00,24.3,19.6,30.13,East,90,6.7,-999.0,82,-99.99,,,0.00,Acu-Link.com,2013-04-02 14:15:00,
2013-04-02 08:30:00,25.0,19.7,30.13,ESE,112,9.4,-999.0,80,-99.99,,,0.00,Acu-Link.com,2013-04-02 14:30:00,
2013-04-02 08:46:00,26.8,19.9,30.14,East,90,12.5,-999.0,75,-99.99,,,0.00,Acu-Link.com,2013-04-02 14:46:00,
2013-04-02 09:01:00,27.0,19.8,30.13,ESE,112,11.9,-999.0,74,-99.99,,,0.00,Acu-Link.com,2013-04-02 15:01:00,
2013-04-02 09:16:00,28.2,20.0,30.14,East,90,11.0,-999.0,71,-99.99,,,0.00,Acu-Link.com,2013-04-02 15:16:00,
2013-04-02 09:31:00,29.5,20.2,30.14,ESE,112,11.4,-999.0,68,-99.99,,,0.00,Acu-Link.com,2013-04-02 15:31:00,
2013-04-02 09:47:00,30.9,20.9,30.14,East,90,13.4,-999.0,66,-99.99,,,0.00,Acu-Link.com,2013-04-02 15:47:00,
2013-04-02 10:17:00,32.4,21.2,30.14,ESE,112,16.6,-999.0,63,-99.99,,,0.00,Acu-Link.com,2013-04-02 16:17:00,
2013-04-02 10:48:00,34.9,22.4,30.14,ESE,112,15.4,-999.0,60,-99.99,,,0.00,Acu-Link.com,2013-04-02 16:48:00,
2013-04-02 11:03:00,35.8,23.3,30.14,ESE,112,12.5,-999.0,60,-99.99,,,0.00,Acu-Link.com,2013-04-02 17:03:00,
2013-04-02 11:18:00,36.7,23.7,30.14,ESE,112,11.4,-999.0,59,-99.99,,,0.00,Acu-Link.com,2013-04-02 17:18:00,
2013-04-02 11:34:00,37.9,23.7,30.15,ESE,112,12.5,-999.0,56,-99.99,,,0.00,Acu-Link.com,2013-04-02 17:34:00,
2013-04-02 11:49:00,38.1,24.3,30.14,ESE,112,9.4,-999.0,57,-99.99,,,0.00,Acu-Link.com,2013-04-02 17:49:00,
2013-04-02 12:19:00,39.6,24.7,30.13,ESE,112,9.8,-999.0,55,-99.99,,,0.00,Acu-Link.com,2013-04-02 18:19:00,
2013-04-02 12:35:00,41.4,25.1,30.13,SE,135,7.4,-999.0,52,-99.99,,,0.00,Acu-Link.com,2013-04-02 18:35:00,
2013-04-02 12:50:00,42.3,25.9,30.12,ESE,112,11.4,-999.0,52,-99.99,,,0.00,Acu-Link.com,2013-04-02 18:50:00,
2013-04-02 13:05:00,42.6,25.8,30.12,ESE,112,11.4,-999.0,51,-99.99,,,0.00,Acu-Link.com,2013-04-02 19:05:00,
2013-04-02 13:21:00,43.0,26.1,30.11,ESE,112,13.4,-999.0,51,-99.99,,,0.00,Acu-Link.com,2013-04-02 19:21:00,
2013-04-02 13:36:00,44.1,27.6,30.11,ESE,112,13.0,-999.0,52,-99.99,,,0.00,Acu-Link.com,2013-04-02 19:36:00,
2013-04-02 14:22:00,44.8,24.8,30.10,ESE,112,11.0,-999.0,45,-99.99,,,0.00,Acu-Link.com,2013-04-02 20:22:00,
2013-04-02 14:37:00,46.4,26.2,30.10,ENE,67,12.5,-999.0,45,-99.99,,,0.00,Acu-Link.com,2013-04-02 20:37:00,
2013-04-02 14:52:00,46.8,26.6,30.09,SE,135,9.8,-999.0,45,-99.99,,,0.00,Acu-Link.com,2013-04-02 20:52:00,
2013-04-02 15:08:00,46.4,25.7,30.08,ESE,112,14.5,-999.0,44,-99.99,,,0.00,Acu-Link.com,2013-04-02 21:08:00,
2013-04-02 15:23:00,47.8,26.4,30.07,ESE,112,10.3,-999.0,43,-99.99,,,0.00,Acu-Link.com,2013-04-02 21:23:00,
2013-04-02 15:38:00,47.8,25.9,30.06,SE,135,11.0,-999.0,42,-99.99,,,0.00,Acu-Link.com,2013-04-02 21:38:00,
2013-04-02 15:53:00,48.4,26.4,30.06,South,180,11.4,-999.0,42,-99.99,,,0.00,Acu-Link.com,2013-04-02 21:53:00,
2013-04-02 16:08:00,49.3,26.6,30.05,East,90,3.1,-999.0,41,-99.99,,,0.00,Acu-Link.com,2013-04-02 22:08:00,
2013-04-02 16:24:00,49.6,26.3,30.05,SE,135,12.5,-999.0,40,-99.99,,,0.00,Acu-Link.com,2013-04-02 22:24:00,
2013-04-02 16:39:00,49.3,26.0,30.04,ESE,112,10.3,-999.0,40,-99.99,,,0.00,Acu-Link.com,2013-04-02 22:39:00,
2013-04-02 16:54:00,48.7,25.5,30.04,South,180,11.4,-999.0,40,-99.99,,,0.00,Acu-Link.com,2013-04-02 22:54:00,
2013-04-02 17:10:00,49.5,26.8,30.04,SE,135,9.4,-999.0,41,-99.99,,,0.00,Acu-Link.com,2013-04-02 23:10:00,
2013-04-02 17:25:00,50.0,26.0,30.04,SSE,157,5.8,-999.0,39,-99.99,,,0.00,Acu-Link.com,2013-04-02 23:25:00,
2013-04-02 17:40:00,49.6,26.9,30.04,South,180,8.3,-999.0,41,-99.99,,,0.00,Acu-Link.com,2013-04-02 23:40:00,
2013-04-02 17:56:00,48.7,26.7,30.03,SSE,157,8.3,-999.0,42,-99.99,,,0.00,Acu-Link.com,2013-04-02 23:56:00,
2013-04-02 18:11:00,48.7,27.3,30.03,ESE,112,11.9,-999.0,43,-99.99,,,0.00,Acu-Link.com,2013-04-03 00:11:00,
2013-04-02 18:26:00,48.0,26.6,30.02,SE,135,11.0,-999.0,43,-99.99,,,0.00,Acu-Link.com,2013-04-03 00:26:00,
2013-04-02 18:41:00,46.4,27.8,30.02,ESE,112,9.8,-999.0,48,-99.99,,,0.00,Acu-Link.com,2013-04-03 00:41:00,
2013-04-02 18:56:00,43.7,27.7,30.01,ESE,112,8.3,-999.0,53,-99.99,,,0.00,Acu-Link.com,2013-04-03 00:56:00,
2013-04-02 19:12:00,40.8,27.2,30.01,ESE,112,6.3,-999.0,58,-99.99,,,0.00,Acu-Link.com,2013-04-03 01:12:00,
2013-04-02 19:27:00,39.2,26.9,30.01,ESE,112,7.8,-999.0,61,-99.99,,,0.00,Acu-Link.com,2013-04-03 01:27:00,
2013-04-02 19:42:00,37.8,26.7,30.01,ESE,112,8.3,-999.0,64,-99.99,,,0.00,Acu-Link.com,2013-04-03 01:42:00,
2013-04-02 19:58:00,38.3,26.8,30.01,SE,135,9.8,-999.0,63,-99.99,,,0.00,Acu-Link.com,2013-04-03 01:58:00,
2013-04-02 20:13:00,37.0,26.4,30.01,ESE,112,6.7,-999.0,65,-99.99,,,0.00,Acu-Link.com,2013-04-03 02:13:00,
2013-04-02 20:28:00,37.8,26.3,30.01,SE,135,14.1,-999.0,63,-99.99,,,0.00,Acu-Link.com,2013-04-03 02:28:00,
2013-04-02 20:43:00,36.5,25.9,30.01,ESE,112,13.0,-999.0,65,-99.99,,,0.00,Acu-Link.com,2013-04-03 02:43:00,
2013-04-02 20:59:00,36.0,25.7,30.02,South,180,11.0,-999.0,66,-99.99,,,0.00,Acu-Link.com,2013-04-03 02:59:00,
2013-04-02 21:14:00,34.9,25.4,30.01,South,180,7.4,-999.0,68,-99.99,,,0.00,Acu-Link.com,2013-04-03 03:14:00,
2013-04-02 21:29:00,34.2,25.4,30.01,SSE,157,11.0,-999.0,70,-99.99,,,0.00,Acu-Link.com,2013-04-03 03:29:00,
2013-04-02 21:44:00,33.8,25.4,30.01,SSE,157,11.0,-999.0,71,-99.99,,,0.00,Acu-Link.com,2013-04-03 03:44:00,
2013-04-02 22:00:00,34.0,25.6,30.01,SE,135,15.4,-999.0,71,-99.99,,,0.00,Acu-Link.com,2013-04-03 04:00:00,
2013-04-02 22:15:00,33.6,25.6,30.00,South,180,14.1,-999.0,72,-99.99,,,0.00,Acu-Link.com,2013-04-03 04:15:00,
2013-04-02 22:30:00,33.1,25.4,30.00,South,180,16.6,-999.0,73,-99.99,,,0.00,Acu-Link.com,2013-04-03 04:30:00,
2013-04-02 22:46:00,32.5,25.2,30.00,South,180,15.4,-999.0,74,-99.99,,,0.00,Acu-Link.com,2013-04-03 04:46:00,
2013-04-02 23:01:00,32.2,24.8,29.99,SSE,157,20.6,-999.0,74,-99.99,,,0.00,Acu-Link.com,2013-04-03 05:01:00,
2013-04-02 23:16:00,31.8,24.8,29.99,South,180,18.6,-999.0,75,-99.99,,,0.00,Acu-Link.com,2013-04-03 05:16:00,
2013-04-02 23:31:00,31.6,24.6,29.99,SSE,157,18.1,-999.0,75,-99.99,,,0.00,Acu-Link.com,2013-04-03 05:31:00,
2013-04-02 23:47:00,31.8,24.8,29.98,South,180,21.7,-999.0,75,-99.99,,,0.00,Acu-Link.com,2013-04-03 05:47:00,